Time;durP1;ratioP1;P1;durP2;ratioP2;P2;SDS_P1;SDS_P2;PMS_P1;PMS_P2;Temp;Humidity;BMP_temperature;BMP_pressure;BME280_temperature;BME280_humidity;BME280_pressure;Samples;Min_cycle;Max_cycle;Signal;HPM_P1;HPM_P2
2022/03/11 00:01:16;;;;;;;14.15;8.52;;;5.90;63.90;;;;;;4915279;29;20458;-69
2022/03/11 00:03:42;;;;;;;13.48;8.07;;;6.00;63.90;;;;;;4922455;29;20044;-68
2022/03/11 00:06:07;;;;;;;16.95;9.32;;;6.00;63.80;;;;;;4925143;29;20051;-68
2022/03/11 00:08:33;;;;;;;10.43;7.78;;;5.90;64.20;;;;;;4929424;29;20144;-69
2022/03/11 00:10:59;;;;;;;14.50;9.85;;;5.90;64.00;;;;;;4925853;29;20162;-68
2022/03/11 00:13:24;;;;;;;11.50;9.10;;;5.90;64.00;;;;;;4943771;28;20038;-68
2022/03/11 00:15:50;;;;;;;11.73;8.02;;;5.90;63.90;;;;;;4916446;29;20088;-68
2022/03/11 00:18:16;;;;;;;14.52;8.88;;;5.90;63.80;;;;;;4914895;29;20040;-68
2022/03/11 00:20:42;;;;;;;15.13;8.05;;;5.90;63.90;;;;;;4915686;29;20489;-68
2022/03/11 00:23:07;;;;;;;13.43;8.70;;;5.90;63.80;;;;;;4915326;29;20051;-69
2022/03/11 00:25:34;;;;;;;12.00;8.63;;;5.80;63.80;;;;;;4928368;29;20580;-69
2022/03/11 00:28:00;;;;;;;15.25;9.40;;;5.80;63.80;;;;;;4923216;29;20458;-69
2022/03/11 00:30:27;;;;;;;16.52;9.35;;;5.80;63.80;;;;;;4926354;29;20104;-68
2022/03/11 00:32:52;;;;;;;17.23;9.48;;;5.80;63.80;;;;;;4915234;29;20079;-68
2022/03/11 00:35:20;;;;;;;14.32;9.30;;;5.80;63.80;;;;;;4919270;29;20580;-69
2022/03/11 00:37:45;;;;;;;20.80;9.25;;;5.80;63.90;;;;;;4933479;29;20047;-68
2022/03/11 00:40:14;;;;;;;13.73;9.40;;;5.80;63.90;;;;;;4929627;29;20043;-68
2022/03/11 00:42:40;;;;;;;16.52;9.13;;;5.70;63.70;;;;;;4933297;29;20488;-69
2022/03/11 00:45:07;;;;;;;16.55;10.02;;;5.70;63.70;;;;;;4929965;29;20111;-68
2022/03/11 00:47:32;;;;;;;13.45;9.38;;;5.80;63.70;;;;;;4917983;29;20079;-68
2022/03/11 00:49:58;;;;;;;18.08;10.02;;;5.70;63.60;;;;;;4905581;29;20482;-68
2022/03/11 00:52:24;;;;;;;12.35;9.18;;;5.70;63.80;;;;;;4914304;29;20068;-68
2022/03/11 00:54:50;;;;;;;14.90;9.05;;;5.70;63.80;;;;;;4914421;29;20048;-69
2022/03/11 00:57:16;;;;;;;16.95;9.05;;;5.70;63.90;;;;;;4897535;29;20084;-68
2022/03/11 00:59:42;;;;;;;15.25;10.05;;;5.70;64.00;;;;;;4897390;29;20051;-68
2022/03/11 01:02:08;;;;;;;16.60;8.85;;;5.70;64.00;;;;;;4914481;29;20108;-68
2022/03/11 01:04:33;;;;;;;15.35;10.02;;;5.70;64.10;;;;;;4916354;29;20040;-68
2022/03/11 01:06:59;;;;;;;16.48;9.68;;;5.70;64.00;;;;;;4927661;29;20040;-68
2022/03/11 01:09:24;;;;;;;15.40;9.23;;;5.70;64.00;;;;;;4914791;29;20040;-67
2022/03/11 01:11:51;;;;;;;15.73;10.25;;;5.70;64.00;;;;;;4913221;29;20074;-68
2022/03/11 01:14:16;;;;;;;14.25;9.18;;;5.70;64.00;;;;;;4903175;29;20092;-68
2022/03/11 01:16:42;;;;;;;13.43;9.65;;;5.70;64.10;;;;;;4933098;29;20039;-68
2022/03/11 01:19:08;;;;;;;15.45;9.88;;;5.60;64.00;;;;;;4925080;29;20044;-68
2022/03/11 01:21:33;;;;;;;16.00;8.98;;;5.60;64.00;;;;;;4933102;29;20046;-68
2022/03/11 01:23:59;;;;;;;13.27;8.82;;;5.60;64.20;;;;;;4926155;29;20484;-68
2022/03/11 01:26:24;;;;;;;35.05;11.70;;;5.60;64.10;;;;;;4914078;29;20055;-68
2022/03/11 01:28:50;;;;;;;14.80;9.45;;;5.60;64.20;;;;;;4922987;29;20055;-68
2022/03/11 01:31:17;;;;;;;14.82;9.13;;;5.50;64.60;;;;;;4914051;29;20071;-68
2022/03/11 01:33:44;;;;;;;17.42;8.93;;;5.50;64.50;;;;;;4915558;29;20090;-68
2022/03/11 01:36:13;;;;;;;15.55;9.05;;;5.50;64.50;;;;;;4932110;29;20055;-67
2022/03/11 01:38:39;;;;;;;15.30;9.90;;;5.40;64.50;;;;;;4897851;29;20412;-69
2022/03/11 01:41:05;;;;;;;14.80;9.30;;;5.40;64.60;;;;;;4912145;29;20048;-68
2022/03/11 01:43:58;;;;;;;14.50;9.55;;;5.40;64.80;;;;;;4914228;29;20047;-68
2022/03/11 01:46:24;;;;;;;13.98;10.13;;;5.40;64.70;;;;;;4913476;29;20095;-68
2022/03/11 01:48:49;;;;;;;15.75;9.40;;;5.30;64.90;;;;;;4917298;29;20039;-68
2022/03/11 01:51:16;;;;;;;15.65;9.40;;;5.30;64.80;;;;;;4919731;29;20059;-68
2022/03/11 01:53:44;;;;;;;15.63;9.70;;;5.30;64.80;;;;;;4897142;29;20107;-68
2022/03/11 01:56:10;;;;;;;16.20;9.23;;;5.30;64.70;;;;;;4926029;29;20083;-68
2022/03/11 01:58:36;;;;;;;15.95;8.85;;;5.30;64.90;;;;;;4933517;29;20036;-68
2022/03/11 02:01:03;;;;;;;16.55;9.93;;;5.30;64.80;;;;;;4918018;29;20040;-69
2022/03/11 02:03:29;;;;;;;15.90;9.48;;;5.30;64.80;;;;;;4934466;29;20143;-69
2022/03/11 02:05:54;;;;;;;13.90;8.48;;;5.20;65.10;;;;;;4917206;29;20549;-67
2022/03/11 02:08:20;;;;;;;14.02;9.10;;;5.20;64.90;;;;;;4918557;29;20127;-67
2022/03/11 02:10:46;;;;;;;14.65;9.55;;;5.20;65.10;;;;;;4918670;29;20044;-67
2022/03/11 02:13:11;;;;;;;13.27;9.00;;;5.20;65.20;;;;;;4920342;29;20054;-67
2022/03/11 02:15:37;;;;;;;13.90;9.23;;;5.20;65.10;;;;;;4935351;29;20051;-67
2022/03/11 02:18:02;;;;;;;14.32;9.60;;;5.20;65.30;;;;;;4934498;29;20044;-67
2022/03/11 02:20:29;;;;;;;12.25;8.63;;;5.10;65.40;;;;;;4915601;29;20055;-67
2022/03/11 02:22:58;;;;;;;13.85;9.50;;;5.10;65.70;;;;;;4936087;29;20052;-67
2022/03/11 02:25:23;;;;;;;16.80;9.07;;;5.10;65.60;;;;;;4919123;29;20048;-67
2022/03/11 02:27:49;;;;;;;16.35;9.43;;;5.10;65.70;;;;;;4917773;29;20520;-67
2022/03/11 02:30:17;;;;;;;13.65;8.98;;;5.10;65.60;;;;;;4927198;29;20039;-67
2022/03/11 02:32:44;;;;;;;14.85;8.85;;;5.10;65.80;;;;;;4918791;29;20050;-67
2022/03/11 02:35:10;;;;;;;14.85;9.18;;;5.00;66.20;;;;;;4916119;29;20046;-67
2022/03/11 02:37:36;;;;;;;15.90;8.70;;;5.00;66.00;;;;;;4918577;29;20052;-68
2022/03/11 02:40:03;;;;;;;15.73;8.38;;;5.00;66.30;;;;;;4909526;29;20040;-67
2022/03/11 02:42:29;;;;;;;14.18;8.43;;;5.00;66.30;;;;;;4921543;29;20565;-67
2022/03/11 02:44:54;;;;;;;17.60;8.35;;;4.90;66.40;;;;;;4909367;29;20168;-67
2022/03/11 02:47:20;;;;;;;13.80;7.78;;;4.90;66.50;;;;;;4916316;29;20052;-68
2022/03/11 02:49:45;;;;;;;13.27;8.27;;;4.90;66.40;;;;;;4917918;29;20536;-68
2022/03/11 02:52:11;;;;;;;12.70;8.73;;;4.90;66.60;;;;;;4916750;29;20096;-68
2022/03/11 02:54:36;;;;;;;15.23;8.35;;;4.80;66.70;;;;;;4916942;29;20052;-68
2022/03/11 02:57:02;;;;;;;13.63;8.63;;;4.80;66.70;;;;;;4916456;29;20048;-68
2022/03/11 02:59:28;;;;;;;13.93;7.88;;;4.80;67.00;;;;;;4917225;29;20051;-68
2022/03/11 03:01:53;;;;;;;11.65;8.10;;;4.80;66.90;;;;;;4927113;29;20044;-68
2022/03/11 03:04:19;;;;;;;13.60;8.80;;;4.70;67.20;;;;;;4916701;29;20044;-68
2022/03/11 03:06:44;;;;;;;16.40;8.63;;;4.70;67.20;;;;;;4915283;29;20416;-68
2022/03/11 03:09:10;;;;;;;16.73;8.52;;;4.70;67.10;;;;;;4916065;29;20505;-68
2022/03/11 03:11:36;;;;;;;10.95;7.43;;;4.70;67.10;;;;;;4921128;29;20054;-67
2022/03/11 03:14:02;;;;;;;13.55;7.75;;;4.70;67.30;;;;;;4934880;29;20048;-68
2022/03/11 03:16:28;;;;;;;13.50;7.50;;;4.70;67.20;;;;;;4932495;29;20066;-68
2022/03/11 03:18:53;;;;;;;12.65;7.95;;;4.70;67.30;;;;;;4934883;29;20475;-68
2022/03/11 03:21:19;;;;;;;12.50;7.85;;;4.70;67.30;;;;;;4919923;29;20040;-68
2022/03/11 03:23:45;;;;;;;17.40;8.38;;;4.70;67.40;;;;;;4935053;29;20269;-68
2022/03/11 03:26:11;;;;;;;13.07;7.70;;;4.60;67.50;;;;;;4915841;29;20485;-68
2022/03/11 03:28:36;;;;;;;20.83;8.40;;;4.60;67.50;;;;;;4898886;29;20111;-68
2022/03/11 03:31:02;;;;;;;18.48;7.85;;;4.60;67.60;;;;;;4933180;29;20047;-68
2022/03/11 03:33:28;;;;;;;13.05;8.52;;;4.60;67.60;;;;;;4934587;29;20044;-68
2022/03/11 03:35:53;;;;;;;12.32;7.75;;;4.60;67.80;;;;;;4925839;29;20095;-68
2022/03/11 03:38:19;;;;;;;13.75;9.00;;;4.60;68.00;;;;;;4917841;29;20040;-68
2022/03/11 03:40:45;;;;;;;13.25;8.63;;;4.60;68.00;;;;;;4915810;29;20051;-68
2022/03/11 03:43:10;;;;;;;21.75;9.88;;;4.60;68.00;;;;;;4932162;29;20073;-68
2022/03/11 03:45:36;;;;;;;13.93;8.07;;;4.60;68.00;;;;;;4922989;29;20099;-68
2022/03/11 03:48:01;;;;;;;16.00;8.50;;;4.60;68.20;;;;;;4915345;29;20066;-68
2022/03/11 03:50:28;;;;;;;12.25;8.00;;;4.60;68.10;;;;;;4915688;29;20103;-68
2022/03/11 03:52:54;;;;;;;16.88;9.13;;;4.60;68.20;;;;;;4924493;29;20047;-68
2022/03/11 03:55:19;;;;;;;15.90;8.95;;;4.60;68.20;;;;;;4925926;29;20055;-68
2022/03/11 03:57:45;;;;;;;13.52;8.90;;;4.50;68.50;;;;;;4915432;29;20048;-68
2022/03/11 04:00:11;;;;;;;15.65;9.68;;;4.50;68.60;;;;;;4914712;29;20114;-67
2022/03/11 04:02:43;;;;;;;22.95;9.45;;;4.50;68.60;;;;;;4914215;29;20059;-68
2022/03/11 04:05:10;;;;;;;13.43;8.35;;;4.50;68.50;;;;;;4928085;29;20057;-68
2022/03/11 04:07:35;;;;;;;12.85;8.35;;;4.40;68.80;;;;;;4882901;29;20143;-68
2022/03/11 04:10:01;;;;;;;16.33;9.85;;;4.50;68.80;;;;;;4916883;29;20055;-68
2022/03/11 04:12:27;;;;;;;20.83;9.50;;;4.40;69.10;;;;;;4923512;29;20540;-68
2022/03/11 04:14:52;;;;;;;13.48;8.77;;;4.40;69.10;;;;;;4915248;29;20147;-68
2022/03/11 04:17:18;;;;;;;16.20;8.65;;;4.40;69.10;;;;;;4916208;29;20051;-68
2022/03/11 04:19:43;;;;;;;14.45;9.02;;;4.40;69.20;;;;;;4911975;29;20497;-68
2022/03/11 04:22:09;;;;;;;13.63;9.75;;;4.40;69.20;;;;;;4926489;29;20040;-67
2022/03/11 04:24:34;;;;;;;13.82;9.10;;;4.40;69.40;;;;;;4917212;29;20087;-68
2022/03/11 04:27:00;;;;;;;16.17;9.25;;;4.30;69.40;;;;;;4913114;29;20040;-67
2022/03/11 04:29:26;;;;;;;19.15;9.32;;;4.40;69.70;;;;;;4930819;29;20048;-67
2022/03/11 04:31:51;;;;;;;17.88;9.82;;;4.30;69.70;;;;;;4924527;29;20039;-68
2022/03/11 04:34:17;;;;;;;14.70;9.93;;;4.40;69.70;;;;;;4917315;29;20051;-68
2022/03/11 04:36:43;;;;;;;14.68;9.25;;;4.40;69.80;;;;;;4925481;29;20108;-68
2022/03/11 04:39:08;;;;;;;14.20;8.70;;;4.30;69.50;;;;;;4925350;29;20467;-68
2022/03/11 04:41:35;;;;;;;13.82;8.70;;;4.30;69.60;;;;;;4923049;29;20044;-68
2022/03/11 04:44:01;;;;;;;21.02;10.25;;;4.30;69.80;;;;;;4920573;29;20524;-68
2022/03/11 04:46:26;;;;;;;15.18;9.85;;;4.30;69.70;;;;;;4914413;29;20059;-67
2022/03/11 04:48:52;;;;;;;14.55;9.82;;;4.30;69.70;;;;;;4924965;29;20485;-68
2022/03/11 04:51:18;;;;;;;14.27;9.68;;;4.30;69.70;;;;;;4932099;29;20052;-68
2022/03/11 04:53:44;;;;;;;15.55;9.52;;;4.20;69.70;;;;;;4923564;29;20056;-67
2022/03/11 04:56:10;;;;;;;18.95;9.93;;;4.30;69.90;;;;;;4923626;29;20066;-68
2022/03/11 04:58:35;;;;;;;14.20;9.25;;;4.20;70.10;;;;;;4932064;29;20053;-68
2022/03/11 05:01:01;;;;;;;17.25;9.77;;;4.20;70.00;;;;;;4925341;29;20145;-68
2022/03/11 05:03:26;;;;;;;14.57;9.32;;;4.20;70.20;;;;;;4902147;29;20051;-67
2022/03/11 05:05:53;;;;;;;15.73;9.77;;;4.20;70.30;;;;;;4915163;29;20051;-69
2022/03/11 05:08:18;;;;;;;14.88;10.02;;;4.20;70.30;;;;;;4913673;29;20044;-68
2022/03/11 05:10:44;;;;;;;18.40;10.48;;;4.20;70.50;;;;;;4913564;29;20052;-69
2022/03/11 05:13:10;;;;;;;19.30;9.57;;;4.10;70.60;;;;;;4915424;29;20048;-70
2022/03/11 05:15:38;;;;;;;17.02;9.63;;;4.10;70.50;;;;;;4931315;29;20055;-68
2022/03/11 05:18:04;;;;;;;21.02;11.70;;;4.10;70.60;;;;;;4930346;29;20136;-69
2022/03/11 05:20:30;;;;;;;17.25;9.75;;;4.10;70.60;;;;;;4913985;29;20058;-71
2022/03/11 05:22:56;;;;;;;19.55;10.77;;;4.10;70.80;;;;;;4930935;29;20055;-68
2022/03/11 05:25:21;;;;;;;16.33;10.00;;;4.10;70.60;;;;;;4930973;29;20074;-68
2022/03/11 05:27:47;;;;;;;15.75;10.05;;;4.10;71.00;;;;;;4913636;29;20052;-69
2022/03/11 05:30:13;;;;;;;16.27;10.23;;;4.00;71.10;;;;;;4928835;29;20048;-69
2022/03/11 05:32:44;;;;;;;19.58;10.50;;;4.00;70.90;;;;;;4922177;29;20051;-68
2022/03/11 05:35:10;;;;;;;20.02;10.57;;;4.10;70.90;;;;;;4912984;29;20052;-68
2022/03/11 05:37:36;;;;;;;19.17;11.77;;;4.10;70.80;;;;;;4918514;29;20100;-68
2022/03/11 05:40:02;;;;;;;18.42;11.45;;;4.00;70.80;;;;;;4924185;29;20157;-68
2022/03/11 05:42:28;;;;;;;24.95;12.20;;;4.00;70.90;;;;;;4930477;29;20039;-69
2022/03/11 05:44:54;;;;;;;18.33;10.73;;;4.00;70.90;;;;;;4925440;29;20043;-68
2022/03/11 05:47:19;;;;;;;16.92;10.57;;;4.00;71.10;;;;;;4923419;29;20052;-68
2022/03/11 05:49:45;;;;;;;19.85;11.30;;;4.00;71.10;;;;;;4912891;29;20611;-69
2022/03/11 05:52:10;;;;;;;17.50;9.95;;;3.90;71.10;;;;;;4912300;29;20046;-69
2022/03/11 05:54:36;;;;;;;20.38;11.73;;;3.90;71.20;;;;;;4919264;29;20500;-67
2022/03/11 05:57:02;;;;;;;20.33;11.23;;;3.90;71.60;;;;;;4930027;29;20040;-68
2022/03/11 05:59:29;;;;;;;16.20;11.13;;;3.90;71.40;;;;;;4925331;29;20039;-69
2022/03/11 06:01:55;;;;;;;20.00;12.20;;;3.90;71.50;;;;;;4912327;29;20054;-68
2022/03/11 06:04:21;;;;;;;19.88;11.32;;;3.90;71.50;;;;;;4920270;29;20040;-68
2022/03/11 06:06:47;;;;;;;17.92;11.80;;;3.90;71.50;;;;;;4916529;29;20102;-68
2022/03/11 06:09:13;;;;;;;18.05;11.88;;;3.90;71.50;;;;;;4921608;28;20039;-68
2022/03/11 06:11:39;;;;;;;18.48;11.10;;;3.90;71.70;;;;;;4929872;29;20367;-68
2022/03/11 06:14:08;;;;;;;19.73;11.57;;;3.90;71.60;;;;;;4929778;29;20066;-68
2022/03/11 06:16:34;;;;;;;25.00;13.43;;;3.90;71.70;;;;;;4927744;29;20054;-68
2022/03/11 06:19:00;;;;;;;18.30;11.30;;;3.90;71.70;;;;;;4927759;29;20468;-68
2022/03/11 06:21:25;;;;;;;19.63;12.55;;;3.90;71.80;;;;;;4924701;29;20049;-69
2022/03/11 06:23:51;;;;;;;20.00;12.50;;;3.80;71.80;;;;;;4931240;29;20036;-68
2022/03/11 06:26:18;;;;;;;20.75;12.68;;;3.90;71.80;;;;;;4923668;29;20092;-68
2022/03/11 06:28:43;;;;;;;19.88;11.90;;;3.90;71.80;;;;;;4895097;29;20134;-68
2022/03/11 06:31:11;;;;;;;26.60;12.13;;;3.90;71.80;;;;;;4924445;29;20572;-68
2022/03/11 06:33:38;;;;;;;20.13;12.02;;;3.90;72.00;;;;;;4913566;29;20059;-68
2022/03/11 06:36:05;;;;;;;20.65;12.20;;;3.90;71.80;;;;;;4922708;29;20075;-68
2022/03/11 06:38:31;;;;;;;21.35;12.82;;;3.90;72.00;;;;;;4913123;29;20054;-68
2022/03/11 06:40:56;;;;;;;21.63;12.73;;;4.00;72.00;;;;;;4922353;29;20505;-68
2022/03/11 06:43:23;;;;;;;24.10;12.85;;;3.90;72.00;;;;;;4929960;29;20213;-68
2022/03/11 06:45:49;;;;;;;20.23;11.88;;;4.00;72.00;;;;;;4922891;29;20058;-68
2022/03/11 06:48:18;;;;;;;20.98;12.65;;;4.00;72.10;;;;;;4924809;29;20131;-68
2022/03/11 06:50:44;;;;;;;18.98;12.70;;;4.10;72.00;;;;;;4925767;29;20055;-67
2022/03/11 06:53:09;;;;;;;23.65;13.95;;;4.10;72.00;;;;;;4937676;29;20058;-68
2022/03/11 06:55:35;;;;;;;19.73;11.95;;;4.10;72.00;;;;;;4932003;29;20481;-68
2022/03/11 06:58:00;;;;;;;24.95;13.20;;;4.10;72.00;;;;;;4924320;29;20130;-67
2022/03/11 07:00:26;;;;;;;23.90;13.25;;;4.10;71.90;;;;;;4916724;29;20087;-68
2022/03/11 07:02:52;;;;;;;21.77;12.60;;;4.20;72.00;;;;;;4922688;29;20519;-67
2022/03/11 07:05:18;;;;;;;27.48;13.18;;;4.20;72.00;;;;;;4923814;29;20062;-68
2022/03/11 07:07:43;;;;;;;20.42;12.00;;;4.20;72.00;;;;;;4921026;29;20071;-67
2022/03/11 07:10:10;;;;;;;22.05;12.40;;;4.20;72.10;;;;;;4950922;29;20172;-68
2022/03/11 07:12:35;;;;;;;20.92;13.00;;;4.30;71.90;;;;;;4919751;29;20036;-68
2022/03/11 07:15:02;;;;;;;22.40;13.48;;;4.40;71.90;;;;;;4919985;29;20582;-68
2022/03/11 07:17:29;;;;;;;52.28;20.23;;;4.40;71.90;;;;;;4916898;29;20111;-68
2022/03/11 07:19:54;;;;;;;20.90;13.35;;;4.40;71.80;;;;;;4909890;29;20048;-69
2022/03/11 07:22:20;;;;;;;24.13;13.60;;;4.60;73.10;;;;;;4932260;29;20134;-68
2022/03/11 07:24:46;;;;;;;23.90;13.27;;;4.80;71.70;;;;;;4917902;29;20048;-68
2022/03/11 07:27:12;;;;;;;24.85;13.38;;;4.90;71.20;;;;;;4926228;29;20459;-68
2022/03/11 07:29:38;;;;;;;26.67;13.63;;;4.90;71.00;;;;;;4933883;29;20051;-68
2022/03/11 07:32:05;;;;;;;23.92;13.32;;;4.90;70.70;;;;;;4932793;29;20119;-69
2022/03/11 07:34:30;;;;;;;23.60;14.35;;;4.90;70.50;;;;;;4916556;29;20496;-68
2022/03/11 07:36:56;;;;;;;19.23;13.18;;;5.00;70.30;;;;;;4925269;29;20044;-68
2022/03/11 07:39:22;;;;;;;23.17;14.20;;;5.10;70.10;;;;;;4914916;29;20043;-65
2022/03/11 07:41:50;;;;;;;22.05;13.27;;;5.10;69.90;;;;;;4915799;29;20050;-66
2022/03/11 07:44:16;;;;;;;23.52;13.95;;;5.10;69.80;;;;;;4921858;29;20055;-66
2022/03/11 07:46:43;;;;;;;22.25;13.27;;;5.10;69.60;;;;;;4920685;29;20257;-67
2022/03/11 07:49:09;;;;;;;22.23;14.18;;;5.20;69.70;;;;;;4914654;29;20052;-66
2022/03/11 07:51:35;;;;;;;25.33;14.18;;;5.20;69.60;;;;;;4915028;29;20578;-67
2022/03/11 07:54:01;;;;;;;24.90;13.90;;;5.30;69.30;;;;;;4919814;29;20075;-67
2022/03/11 07:56:27;;;;;;;23.25;14.38;;;5.30;69.20;;;;;;4926520;29;20040;-65
2022/03/11 07:58:59;;;;;;;26.33;15.63;;;5.40;68.90;;;;;;4917448;29;20036;-65
2022/03/11 08:01:25;;;;;;;29.70;14.30;;;5.40;68.70;;;;;;4917390;29;20043;-66
2022/03/11 08:03:52;;;;;;;24.10;14.20;;;5.50;68.50;;;;;;4927024;29;20051;-65
2022/03/11 08:06:17;;;;;;;20.02;13.57;;;5.50;68.30;;;;;;4933187;29;20055;-66
2022/03/11 08:08:43;;;;;;;24.60;14.07;;;5.60;68.10;;;;;;4929813;29;20409;-66
2022/03/11 08:11:10;;;;;;;24.05;13.82;;;5.60;68.00;;;;;;4917944;29;20051;-67
2022/03/11 08:13:35;;;;;;;17.30;12.38;;;5.60;67.80;;;;;;4930763;29;20044;-67
2022/03/11 08:16:02;;;;;;;24.75;12.82;;;5.70;67.70;;;;;;4921007;29;20123;-65
2022/03/11 08:18:29;;;;;;;21.05;12.68;;;5.70;67.90;;;;;;4921660;29;20413;-68
2022/03/11 08:20:56;;;;;;;23.20;12.98;;;5.80;67.70;;;;;;4913137;29;20167;-69
2022/03/11 08:23:21;;;;;;;24.13;13.93;;;5.90;67.20;;;;;;4923673;29;20491;-69
2022/03/11 08:25:48;;;;;;;25.52;14.20;;;6.00;67.30;;;;;;4915574;29;20439;-68
2022/03/11 08:28:13;;;;;;;22.73;14.75;;;6.00;67.10;;;;;;4914434;29;20429;-69
2022/03/11 08:30:40;;;;;;;22.67;13.50;;;6.10;67.00;;;;;;4925903;29;20040;-69
2022/03/11 08:33:07;;;;;;;25.77;13.60;;;6.10;66.80;;;;;;4914262;29;20043;-69
2022/03/11 08:35:33;;;;;;;23.58;14.45;;;6.10;66.70;;;;;;4918643;29;20056;-68
2022/03/11 08:37:59;;;;;;;23.30;14.35;;;6.10;66.60;;;;;;4920381;29;20036;-66
2022/03/11 08:40:26;;;;;;;22.20;13.75;;;6.20;66.60;;;;;;4899590;29;20441;-69
2022/03/11 08:42:52;;;;;;;26.25;13.90;;;6.30;66.60;;;;;;4931905;29;20058;-69
2022/03/11 08:45:21;;;;;;;21.75;12.52;;;6.40;66.40;;;;;;4927476;29;20050;-68
2022/03/11 08:47:50;;;;;;;22.17;13.88;;;6.40;66.10;;;;;;4917607;29;20094;-68
2022/03/11 08:50:17;;;;;;;22.75;13.98;;;6.50;66.00;;;;;;4925615;29;20055;-69
2022/03/11 08:52:42;;;;;;;23.85;14.43;;;6.60;65.50;;;;;;4923716;29;20130;-69
2022/03/11 08:55:10;;;;;;;21.20;13.35;;;6.60;65.60;;;;;;4914338;29;20146;-70
2022/03/11 08:57:36;;;;;;;23.13;14.25;;;6.70;65.00;;;;;;4926785;29;20466;-69
2022/03/11 09:00:07;;;;;;;22.02;13.65;;;6.70;64.40;;;;;;4932005;29;20127;-72
2022/03/11 09:02:37;;;;;;;20.60;13.48;;;6.80;64.70;;;;;;4930057;29;20071;-72
2022/03/11 09:05:03;;;;;;;20.67;12.45;;;6.90;64.50;;;;;;4931064;29;20488;-69
2022/03/11 09:07:29;;;;;;;30.05;13.90;;;6.90;64.20;;;;;;4922787;29;20509;-68
2022/03/11 09:09:55;;;;;;;24.13;13.73;;;7.00;64.10;;;;;;4921605;29;20091;-67
2022/03/11 09:12:21;;;;;;;27.52;14.43;;;7.10;63.90;;;;;;4919327;29;20052;-67
2022/03/11 09:14:47;;;;;;;25.27;14.43;;;7.20;63.50;;;;;;4916629;29;20609;-68
2022/03/11 09:17:13;;;;;;;20.85;13.45;;;7.20;63.30;;;;;;4924006;29;20461;-68
2022/03/11 09:19:38;;;;;;;21.35;13.50;;;7.40;62.60;;;;;;4923551;29;20082;-66
2022/03/11 09:22:05;;;;;;;19.55;13.40;;;7.40;62.60;;;;;;4922938;29;20130;-65
2022/03/11 09:24:31;;;;;;;23.02;12.13;;;7.50;62.60;;;;;;4935637;29;20102;-64
2022/03/11 09:26:58;;;;;;;27.35;13.40;;;7.50;61.20;;;;;;4930823;29;20048;-63
2022/03/11 09:29:28;;;;;;;20.25;13.63;;;7.60;61.60;;;;;;4930208;29;20057;-64
2022/03/11 09:31:54;;;;;;;19.85;12.65;;;7.70;61.50;;;;;;4928498;29;20503;-63
2022/03/11 09:34:20;;;;;;;18.88;13.52;;;7.70;60.80;;;;;;4931661;29;20103;-67
2022/03/11 09:36:45;;;;;;;19.70;12.02;;;7.80;60.80;;;;;;4929767;29;20052;-65
2022/03/11 09:39:11;;;;;;;18.25;12.10;;;7.80;60.90;;;;;;4925049;29;20079;-65
2022/03/11 09:41:37;;;;;;;23.35;14.57;;;8.80;67.10;;;;;;4923205;29;20082;-66
2022/03/11 09:44:03;;;;;;;21.38;13.55;;;8.90;61.30;;;;;;4929568;29;20044;-68
2022/03/11 09:46:29;;;;;;;19.70;13.50;;;8.70;58.90;;;;;;4924913;29;20471;-68
2022/03/11 09:48:55;;;;;;;21.92;13.05;;;8.60;59.00;;;;;;4929827;29;20052;-67
2022/03/11 09:51:20;;;;;;;21.20;13.77;;;8.60;59.30;;;;;;4894791;29;20055;-67
2022/03/11 09:53:46;;;;;;;24.98;14.80;;;8.50;59.00;;;;;;4920293;29;20130;-66
2022/03/11 09:56:12;;;;;;;23.98;14.02;;;8.40;58.50;;;;;;4931860;29;20269;-67
2022/03/11 09:58:37;;;;;;;25.20;15.13;;;8.40;59.00;;;;;;4931802;29;20107;-66
2022/03/11 10:01:05;;;;;;;27.13;15.52;;;8.40;59.10;;;;;;4931364;29;20054;-67
2022/03/11 10:03:31;;;;;;;21.77;13.75;;;8.40;59.20;;;;;;4932082;29;20162;-67
2022/03/11 10:05:57;;;;;;;26.50;13.98;;;8.50;59.50;;;;;;4931914;29;20565;-65
2022/03/11 10:08:31;;;;;;;27.00;14.02;;;8.50;59.00;;;;;;4931679;29;20039;-67
2022/03/11 10:11:15;;;;;;;20.23;14.35;;;8.50;59.00;;;;;;4931285;29;20102;-67
2022/03/11 10:13:41;;;;;;;24.17;13.68;;;8.60;58.60;;;;;;4931968;29;20044;-67
2022/03/11 10:16:20;;;;;;;28.48;14.77;;;8.50;59.00;;;;;;4933345;29;20054;-67
2022/03/11 10:18:56;;;;;;;21.65;14.45;;;8.60;58.80;;;;;;4935758;29;20147;-67
2022/03/11 10:21:46;;;;;;;22.35;14.13;;;8.60;59.10;;;;;;4935246;29;20142;-65
2022/03/11 10:24:16;;;;;;;21.33;14.25;;;8.70;58.70;;;;;;4935324;29;20134;-66
2022/03/11 10:26:50;;;;;;;22.20;14.13;;;8.80;58.80;;;;;;4935496;29;20614;-67
2022/03/11 10:29:18;;;;;;;23.60;15.02;;;8.80;58.10;;;;;;4935080;29;20131;-66
2022/03/11 10:31:46;;;;;;;22.95;14.50;;;8.90;57.70;;;;;;4935606;29;20408;-66
2022/03/11 10:34:32;;;;;;;21.88;13.68;;;8.90;58.20;;;;;;4934564;29;20052;-67
2022/03/11 10:37:05;;;;;;;30.83;16.05;;;9.00;58.10;;;;;;4935198;29;20100;-67
2022/03/11 10:39:39;;;;;;;22.80;13.98;;;9.00;58.00;;;;;;4935525;29;20047;-66
2022/03/11 10:42:19;;;;;;;25.27;14.70;;;9.10;57.80;;;;;;4934993;29;20063;-66
2022/03/11 10:44:56;;;;;;;20.60;13.88;;;9.20;57.40;;;;;;4933905;29;20684;-67
2022/03/11 10:47:29;;;;;;;22.48;13.60;;;9.20;56.90;;;;;;4915637;29;20060;-66
2022/03/11 10:49:58;;;;;;;29.08;15.02;;;9.20;57.10;;;;;;4915958;29;20056;-67
2022/03/11 10:52:40;;;;;;;22.35;14.48;;;9.20;57.10;;;;;;4910742;29;20048;-67
2022/03/11 10:55:29;;;;;;;20.90;14.35;;;9.30;57.40;;;;;;4924078;29;20440;-66
2022/03/11 10:58:04;;;;;;;22.42;14.43;;;9.40;57.70;;;;;;4934507;29;20063;-67
2022/03/11 11:00:31;;;;;;;21.75;14.05;;;9.60;57.50;;;;;;4929514;29;20063;-66
2022/03/11 11:02:58;;;;;;;22.55;14.45;;;9.60;56.70;;;;;;4915875;29;20048;-67
2022/03/11 11:05:26;;;;;;;20.77;14.52;;;9.60;56.20;;;;;;4919093;29;20130;-67
2022/03/11 11:07:52;;;;;;;22.08;12.98;;;9.60;56.00;;;;;;4934750;29;20047;-67
2022/03/11 11:10:20;;;;;;;22.20;14.38;;;9.60;55.80;;;;;;4931146;29;20131;-67
2022/03/11 11:12:47;;;;;;;24.80;15.02;;;9.70;55.50;;;;;;4898487;29;20055;-67
2022/03/11 11:15:15;;;;;;;25.42;16.02;;;9.60;55.80;;;;;;4915264;29;20405;-66
2022/03/11 11:17:42;;;;;;;22.95;15.27;;;9.70;56.10;;;;;;4915433;29;20087;-67
2022/03/11 11:20:18;;;;;;;25.27;15.07;;;9.90;55.40;;;;;;4916180;29;20048;-66
2022/03/11 11:22:46;;;;;;;24.65;15.18;;;9.90;55.10;;;;;;4925805;29;20044;-67
2022/03/11 11:25:14;;;;;;;30.60;16.00;;;10.00;55.20;;;;;;4923716;29;20512;-66
2022/03/11 11:27:39;;;;;;;23.45;14.93;;;10.00;54.60;;;;;;4933719;29;20048;-66
2022/03/11 11:30:06;;;;;;;21.13;13.88;;;10.00;55.40;;;;;;4929390;29;20048;-66
2022/03/11 11:32:35;;;;;;;22.38;15.18;;;10.10;55.00;;;;;;4898243;29;20075;-67
2022/03/11 11:35:24;;;;;;;23.42;14.65;;;10.20;55.30;;;;;;4915045;29;20056;-67
2022/03/11 11:37:50;;;;;;;29.63;15.38;;;10.20;54.10;;;;;;4933871;29;20047;-66
2022/03/11 11:40:23;;;;;;;25.73;15.30;;;10.20;54.80;;;;;;4933376;29;20066;-66
2022/03/11 11:43:14;;;;;;;22.85;14.85;;;10.40;54.80;;;;;;4933534;29;20047;-67
2022/03/11 11:46:08;;;;;;;23.45;14.95;;;10.40;54.30;;;;;;4916044;29;20084;-67
2022/03/11 11:48:45;;;;;;;22.70;15.07;;;10.50;54.00;;;;;;4914760;29;20059;-68
2022/03/11 11:51:12;;;;;;;28.60;15.10;;;10.60;54.30;;;;;;4919839;29;20055;-67
2022/03/11 11:53:42;;;;;;;22.33;14.63;;;10.60;54.10;;;;;;4933755;29;20393;-67
2022/03/11 11:56:26;;;;;;;22.70;15.18;;;10.70;53.90;;;;;;4917539;29;20448;-67
2022/03/11 11:58:52;;;;;;;23.92;14.77;;;10.80;53.60;;;;;;4931322;29;20077;-67
2022/03/11 12:01:43;;;;;;;28.02;15.50;;;10.80;53.60;;;;;;4933081;29;20043;-66
2022/03/11 12:04:28;;;;;;;21.00;14.43;;;10.90;53.00;;;;;;4933609;29;20047;-66
2022/03/11 12:06:55;;;;;;;23.48;15.55;;;11.00;52.80;;;;;;4918088;29;20307;-67
2022/03/11 12:09:42;;;;;;;22.70;13.68;;;11.00;52.70;;;;;;4914542;29;20107;-67
2022/03/11 12:12:32;;;;;;;30.05;15.63;;;11.10;52.00;;;;;;4924995;29;20050;-67
2022/03/11 12:15:04;;;;;;;25.20;14.90;;;11.10;52.10;;;;;;4933073;29;20054;-67
2022/03/11 12:17:40;;;;;;;23.55;16.15;;;11.20;52.40;;;;;;4933255;29;20073;-66
2022/03/11 12:20:33;;;;;;;22.40;13.57;;;11.30;51.50;;;;;;4931746;29;20052;-67
2022/03/11 12:23:09;;;;;;;33.28;16.38;;;11.30;51.60;;;;;;4922427;29;20044;-67
2022/03/11 12:25:45;;;;;;;21.65;14.70;;;11.40;51.10;;;;;;4915243;29;20489;-67
2022/03/11 12:28:29;;;;;;;21.42;13.95;;;11.50;51.50;;;;;;4931263;29;20150;-67
2022/03/11 12:31:06;;;;;;;23.63;14.50;;;11.50;51.20;;;;;;4919386;29;20099;-67
2022/03/11 12:33:33;;;;;;;20.77;14.23;;;11.60;51.60;;;;;;4924372;29;20408;-67
2022/03/11 12:36:00;;;;;;;25.17;14.60;;;11.60;51.20;;;;;;4919572;29;20131;-67
2022/03/11 12:38:28;;;;;;;21.08;13.85;;;11.70;51.60;;;;;;4932718;29;20059;-67
2022/03/11 12:41:00;;;;;;;20.75;14.50;;;11.80;51.20;;;;;;4932539;29;20058;-67
2022/03/11 12:43:26;;;;;;;23.90;14.38;;;11.80;50.90;;;;;;4932501;29;20126;-67